sensor_id;sensor_type;location;lat;lon;timestamp;temperature;humidity
13982;DHT22;7065;50.880;5.502;2022-08-03T00:01:32;19.30;99.90
13982;DHT22;7065;50.880;5.502;2022-08-03T00:03:58;19.30;99.90
13982;DHT22;7065;50.880;5.502;2022-08-03T00:06:24;19.30;99.90
13982;DHT22;7065;50.880;5.502;2022-08-03T00:08:50;19.20;99.90
13982;DHT22;7065;50.880;5.502;2022-08-03T00:11:15;19.10;99.90
13982;DHT22;7065;50.880;5.502;2022-08-03T00:13:41;19.10;99.90
13982;DHT22;7065;50.880;5.502;2022-08-03T00:16:07;19.00;99.90
13982;DHT22;7065;50.880;5.502;2022-08-03T00:18:33;19.00;99.90
13982;DHT22;7065;50.880;5.502;2022-08-03T00:20:59;19.00;99.90
13982;DHT22;7065;50.880;5.502;2022-08-03T00:23:24;18.90;99.90
13982;DHT22;7065;50.880;5.502;2022-08-03T00:25:50;18.80;99.90
13982;DHT22;7065;50.880;5.502;2022-08-03T00:28:16;18.70;99.90
13982;DHT22;7065;50.880;5.502;2022-08-03T00:30:41;18.70;99.90
13982;DHT22;7065;50.880;5.502;2022-08-03T00:33:07;18.60;99.90
13982;DHT22;7065;50.880;5.502;2022-08-03T00:35:34;18.60;99.90
13982;DHT22;7065;50.880;5.502;2022-08-03T00:38:00;18.70;99.90
13982;DHT22;7065;50.880;5.502;2022-08-03T00:40:26;18.70;99.90
13982;DHT22;7065;50.880;5.502;2022-08-03T00:42:52;18.80;99.90
13982;DHT22;7065;50.880;5.502;2022-08-03T00:45:25;18.80;99.90
13982;DHT22;7065;50.880;5.502;2022-08-03T00:47:52;18.90;99.90
13982;DHT22;7065;50.880;5.502;2022-08-03T00:50:20;18.90;99.90
13982;DHT22;7065;50.880;5.502;2022-08-03T00:52:48;18.90;99.90
13982;DHT22;7065;50.880;5.502;2022-08-03T00:55:14;18.90;99.90
13982;DHT22;7065;50.880;5.502;2022-08-03T00:57:41;18.90;99.90
13982;DHT22;7065;50.880;5.502;2022-08-03T01:00:08;18.90;99.90
13982;DHT22;7065;50.880;5.502;2022-08-03T01:02:35;18.90;99.90
13982;DHT22;7065;50.880;5.502;2022-08-03T01:05:01;18.90;99.90
13982;DHT22;7065;50.880;5.502;2022-08-03T01:16:00;18.80;99.90
13982;DHT22;7065;50.880;5.502;2022-08-03T01:18:47;18.80;99.90
13982;DHT22;7065;50.880;5.502;2022-08-03T01:21:28;18.80;99.90
13982;DHT22;7065;50.880;5.502;2022-08-03T01:24:05;18.70;99.90
13982;DHT22;7065;50.880;5.502;2022-08-03T01:27:06;18.70;99.90
13982;DHT22;7065;50.880;5.502;2022-08-03T01:30:02;18.70;99.90
13982;DHT22;7065;50.880;5.502;2022-08-03T01:32:35;18.60;99.90
13982;DHT22;7065;50.880;5.502;2022-08-03T01:35:10;18.60;99.90
13982;DHT22;7065;50.880;5.502;2022-08-03T01:37:52;18.60;99.90
13982;DHT22;7065;50.880;5.502;2022-08-03T01:40:21;18.60;99.90
13982;DHT22;7065;50.880;5.502;2022-08-03T01:42:49;18.60;99.90
13982;DHT22;7065;50.880;5.502;2022-08-03T01:45:16;18.60;99.90
13982;DHT22;7065;50.880;5.502;2022-08-03T01:47:44;18.60;99.90
13982;DHT22;7065;50.880;5.502;2022-08-03T01:50:11;18.60;99.90
13982;DHT22;7065;50.880;5.502;2022-08-03T01:52:39;18.50;99.90
13982;DHT22;7065;50.880;5.502;2022-08-03T01:55:09;18.50;99.90
13982;DHT22;7065;50.880;5.502;2022-08-03T01:57:37;18.50;99.90
13982;DHT22;7065;50.880;5.502;2022-08-03T02:00:04;18.50;99.90
13982;DHT22;7065;50.880;5.502;2022-08-03T02:02:31;18.40;99.90
13982;DHT22;7065;50.880;5.502;2022-08-03T02:04:58;18.30;99.90
13982;DHT22;7065;50.880;5.502;2022-08-03T02:07:26;18.30;99.90
13982;DHT22;7065;50.880;5.502;2022-08-03T02:09:54;18.20;99.90
13982;DHT22;7065;50.880;5.502;2022-08-03T02:12:22;18.10;99.90
13982;DHT22;7065;50.880;5.502;2022-08-03T02:14:49;18.00;99.90
13982;DHT22;7065;50.880;5.502;2022-08-03T02:17:15;17.90;99.90
13982;DHT22;7065;50.880;5.502;2022-08-03T02:19:41;17.80;99.90
13982;DHT22;7065;50.880;5.502;2022-08-03T02:22:09;17.80;99.90
13982;DHT22;7065;50.880;5.502;2022-08-03T02:24:35;17.70;99.90
13982;DHT22;7065;50.880;5.502;2022-08-03T02:27:02;17.60;99.90
13982;DHT22;7065;50.880;5.502;2022-08-03T02:29:32;17.60;99.90
13982;DHT22;7065;50.880;5.502;2022-08-03T02:32:00;17.60;99.90
13982;DHT22;7065;50.880;5.502;2022-08-03T02:34:30;17.50;99.90
13982;DHT22;7065;50.880;5.502;2022-08-03T02:36:59;17.50;99.90
13982;DHT22;7065;50.880;5.502;2022-08-03T02:39:27;17.50;99.90
13982;DHT22;7065;50.880;5.502;2022-08-03T02:41:56;17.50;99.90
13982;DHT22;7065;50.880;5.502;2022-08-03T02:44:27;17.40;99.90
13982;DHT22;7065;50.880;5.502;2022-08-03T02:46:59;17.50;99.90
13982;DHT22;7065;50.880;5.502;2022-08-03T02:49:26;17.50;99.90
13982;DHT22;7065;50.880;5.502;2022-08-03T02:51:53;17.50;99.90
13982;DHT22;7065;50.880;5.502;2022-08-03T02:54:21;17.50;99.90
13982;DHT22;7065;50.880;5.502;2022-08-03T02:56:47;17.60;99.90
13982;DHT22;7065;50.880;5.502;2022-08-03T02:59:17;17.50;99.90
13982;DHT22;7065;50.880;5.502;2022-08-03T03:01:44;17.50;99.90
13982;DHT22;7065;50.880;5.502;2022-08-03T03:04:11;17.50;99.90
13982;DHT22;7065;50.880;5.502;2022-08-03T03:06:38;17.50;99.90
13982;DHT22;7065;50.880;5.502;2022-08-03T03:09:04;17.50;99.90
13982;DHT22;7065;50.880;5.502;2022-08-03T03:11:30;17.50;99.90
13982;DHT22;7065;50.880;5.502;2022-08-03T03:13:57;17.50;99.90
13982;DHT22;7065;50.880;5.502;2022-08-03T03:16:25;17.50;99.90
13982;DHT22;7065;50.880;5.502;2022-08-03T03:18:51;17.50;99.90
13982;DHT22;7065;50.880;5.502;2022-08-03T03:21:18;17.50;99.90
13982;DHT22;7065;50.880;5.502;2022-08-03T03:23:45;17.50;99.90
13982;DHT22;7065;50.880;5.502;2022-08-03T03:26:13;17.50;99.90
13982;DHT22;7065;50.880;5.502;2022-08-03T03:28:39;17.50;99.90
13982;DHT22;7065;50.880;5.502;2022-08-03T03:31:06;17.50;99.90
13982;DHT22;7065;50.880;5.502;2022-08-03T03:33:33;17.50;99.90
13982;DHT22;7065;50.880;5.502;2022-08-03T03:35:59;17.50;99.90
13982;DHT22;7065;50.880;5.502;2022-08-03T03:38:25;17.50;99.90
13982;DHT22;7065;50.880;5.502;2022-08-03T03:40:50;17.40;99.90
13982;DHT22;7065;50.880;5.502;2022-08-03T03:43:16;17.40;99.90
13982;DHT22;7065;50.880;5.502;2022-08-03T03:45:43;17.40;99.90
13982;DHT22;7065;50.880;5.502;2022-08-03T03:48:10;17.30;99.90
13982;DHT22;7065;50.880;5.502;2022-08-03T03:50:36;17.30;99.90
13982;DHT22;7065;50.880;5.502;2022-08-03T03:53:08;17.30;99.90
13982;DHT22;7065;50.880;5.502;2022-08-03T03:55:38;17.30;99.90
13982;DHT22;7065;50.880;5.502;2022-08-03T03:58:04;17.30;99.90
13982;DHT22;7065;50.880;5.502;2022-08-03T04:00:30;17.30;99.90
13982;DHT22;7065;50.880;5.502;2022-08-03T04:02:56;17.30;99.90
13982;DHT22;7065;50.880;5.502;2022-08-03T04:05:22;17.30;99.90
13982;DHT22;7065;50.880;5.502;2022-08-03T04:08:11;17.30;99.90
13982;DHT22;7065;50.880;5.502;2022-08-03T04:13:40;17.20;99.90
13982;DHT22;7065;50.880;5.502;2022-08-03T04:16:08;17.30;99.90
13982;DHT22;7065;50.880;5.502;2022-08-03T04:18:37;17.30;99.90
13982;DHT22;7065;50.880;5.502;2022-08-03T04:21:09;17.30;99.90
13982;DHT22;7065;50.880;5.502;2022-08-03T04:23:39;17.30;99.90
13982;DHT22;7065;50.880;5.502;2022-08-03T04:26:08;17.30;99.90
13982;DHT22;7065;50.880;5.502;2022-08-03T04:28:38;17.40;99.90
13982;DHT22;7065;50.880;5.502;2022-08-03T04:31:04;17.30;99.90
13982;DHT22;7065;50.880;5.502;2022-08-03T04:33:32;17.30;99.90
13982;DHT22;7065;50.880;5.502;2022-08-03T04:36:00;17.30;99.90
13982;DHT22;7065;50.880;5.502;2022-08-03T04:38:30;17.30;99.90
13982;DHT22;7065;50.880;5.502;2022-08-03T04:40:56;17.30;99.90
13982;DHT22;7065;50.880;5.502;2022-08-03T04:43:23;17.30;99.90
13982;DHT22;7065;50.880;5.502;2022-08-03T04:45:50;17.30;99.90
13982;DHT22;7065;50.880;5.502;2022-08-03T04:48:16;17.30;99.90
13982;DHT22;7065;50.880;5.502;2022-08-03T04:50:42;17.30;99.90
13982;DHT22;7065;50.880;5.502;2022-08-03T04:53:08;17.40;99.90
13982;DHT22;7065;50.880;5.502;2022-08-03T04:55:34;17.40;99.90
13982;DHT22;7065;50.880;5.502;2022-08-03T04:58:01;17.40;99.90
13982;DHT22;7065;50.880;5.502;2022-08-03T05:00:28;17.40;99.90
13982;DHT22;7065;50.880;5.502;2022-08-03T05:02:54;17.50;99.90
13982;DHT22;7065;50.880;5.502;2022-08-03T05:05:21;17.50;99.90
13982;DHT22;7065;50.880;5.502;2022-08-03T05:07:47;17.60;99.90
13982;DHT22;7065;50.880;5.502;2022-08-03T05:10:13;17.60;99.90
13982;DHT22;7065;50.880;5.502;2022-08-03T05:12:39;17.60;99.90
13982;DHT22;7065;50.880;5.502;2022-08-03T05:15:06;17.70;99.90
13982;DHT22;7065;50.880;5.502;2022-08-03T05:17:32;17.80;99.90
13982;DHT22;7065;50.880;5.502;2022-08-03T05:20:02;17.80;99.90
13982;DHT22;7065;50.880;5.502;2022-08-03T05:22:28;17.90;99.90
13982;DHT22;7065;50.880;5.502;2022-08-03T05:24:54;18.00;99.90
13982;DHT22;7065;50.880;5.502;2022-08-03T05:27:20;18.00;99.90
13982;DHT22;7065;50.880;5.502;2022-08-03T05:29:46;18.10;99.90
13982;DHT22;7065;50.880;5.502;2022-08-03T05:32:12;18.20;99.90
13982;DHT22;7065;50.880;5.502;2022-08-03T05:34:38;18.20;99.90
13982;DHT22;7065;50.880;5.502;2022-08-03T05:37:04;18.30;99.90
13982;DHT22;7065;50.880;5.502;2022-08-03T05:39:29;18.30;99.90
13982;DHT22;7065;50.880;5.502;2022-08-03T05:41:55;18.40;99.90
13982;DHT22;7065;50.880;5.502;2022-08-03T05:44:20;18.50;99.90
13982;DHT22;7065;50.880;5.502;2022-08-03T05:46:46;18.60;99.90
13982;DHT22;7065;50.880;5.502;2022-08-03T05:49:12;18.60;99.90
13982;DHT22;7065;50.880;5.502;2022-08-03T05:51:37;18.70;99.90
13982;DHT22;7065;50.880;5.502;2022-08-03T05:54:03;18.70;99.90
13982;DHT22;7065;50.880;5.502;2022-08-03T05:56:29;18.80;99.90
13982;DHT22;7065;50.880;5.502;2022-08-03T05:58:54;18.80;99.90
13982;DHT22;7065;50.880;5.502;2022-08-03T06:01:20;18.90;99.90
13982;DHT22;7065;50.880;5.502;2022-08-03T06:03:47;19.00;99.90
13982;DHT22;7065;50.880;5.502;2022-08-03T06:06:13;19.10;99.90
13982;DHT22;7065;50.880;5.502;2022-08-03T06:08:39;19.10;99.90
13982;DHT22;7065;50.880;5.502;2022-08-03T06:11:06;19.20;99.90
13982;DHT22;7065;50.880;5.502;2022-08-03T06:13:31;19.30;99.90
13982;DHT22;7065;50.880;5.502;2022-08-03T06:15:57;19.40;99.90
13982;DHT22;7065;50.880;5.502;2022-08-03T06:18:23;19.50;99.90
13982;DHT22;7065;50.880;5.502;2022-08-03T06:20:49;19.60;99.90
13982;DHT22;7065;50.880;5.502;2022-08-03T06:23:15;19.70;99.90
13982;DHT22;7065;50.880;5.502;2022-08-03T06:25:41;19.70;99.90
13982;DHT22;7065;50.880;5.502;2022-08-03T06:28:07;19.80;99.90
13982;DHT22;7065;50.880;5.502;2022-08-03T06:30:33;19.90;99.90
13982;DHT22;7065;50.880;5.502;2022-08-03T06:32:59;19.90;99.90
13982;DHT22;7065;50.880;5.502;2022-08-03T06:35:24;20.00;99.90
13982;DHT22;7065;50.880;5.502;2022-08-03T06:37:52;20.10;99.90
13982;DHT22;7065;50.880;5.502;2022-08-03T06:40:22;20.20;99.90
13982;DHT22;7065;50.880;5.502;2022-08-03T06:42:59;20.30;99.90
13982;DHT22;7065;50.880;5.502;2022-08-03T06:45:25;20.30;99.90
13982;DHT22;7065;50.880;5.502;2022-08-03T06:50:32;20.50;99.90
13982;DHT22;7065;50.880;5.502;2022-08-03T06:52:58;20.60;99.90
13982;DHT22;7065;50.880;5.502;2022-08-03T06:55:24;20.70;99.90
13982;DHT22;7065;50.880;5.502;2022-08-03T06:57:50;20.70;99.90
13982;DHT22;7065;50.880;5.502;2022-08-03T07:00:17;20.80;99.90
13982;DHT22;7065;50.880;5.502;2022-08-03T07:02:43;20.90;99.90
13982;DHT22;7065;50.880;5.502;2022-08-03T07:05:09;21.00;99.90
13982;DHT22;7065;50.880;5.502;2022-08-03T07:07:35;21.10;99.90
13982;DHT22;7065;50.880;5.502;2022-08-03T07:10:01;21.20;99.90
13982;DHT22;7065;50.880;5.502;2022-08-03T07:12:29;21.30;99.90
13982;DHT22;7065;50.880;5.502;2022-08-03T07:14:56;21.30;99.90
13982;DHT22;7065;50.880;5.502;2022-08-03T07:17:21;21.30;99.90
13982;DHT22;7065;50.880;5.502;2022-08-03T07:19:48;21.40;99.90
13982;DHT22;7065;50.880;5.502;2022-08-03T07:22:13;21.40;99.90
13982;DHT22;7065;50.880;5.502;2022-08-03T07:24:39;21.50;99.90
13982;DHT22;7065;50.880;5.502;2022-08-03T07:27:06;21.60;99.90
13982;DHT22;7065;50.880;5.502;2022-08-03T07:29:33;21.70;99.90
13982;DHT22;7065;50.880;5.502;2022-08-03T07:31:59;21.80;99.90
13982;DHT22;7065;50.880;5.502;2022-08-03T07:34:25;22.00;99.90
13982;DHT22;7065;50.880;5.502;2022-08-03T07:36:51;22.20;99.90
13982;DHT22;7065;50.880;5.502;2022-08-03T07:39:16;22.40;99.90
13982;DHT22;7065;50.880;5.502;2022-08-03T07:41:42;22.60;99.90
13982;DHT22;7065;50.880;5.502;2022-08-03T07:44:08;22.70;99.90
13982;DHT22;7065;50.880;5.502;2022-08-03T07:46:33;22.70;99.90
13982;DHT22;7065;50.880;5.502;2022-08-03T07:48:59;22.90;99.90
13982;DHT22;7065;50.880;5.502;2022-08-03T07:51:25;23.00;99.90
13982;DHT22;7065;50.880;5.502;2022-08-03T07:53:50;23.10;99.90
13982;DHT22;7065;50.880;5.502;2022-08-03T07:56:16;23.20;99.90
13982;DHT22;7065;50.880;5.502;2022-08-03T07:58:42;23.30;99.90
13982;DHT22;7065;50.880;5.502;2022-08-03T08:01:07;23.30;99.90
13982;DHT22;7065;50.880;5.502;2022-08-03T08:03:33;23.30;99.90
13982;DHT22;7065;50.880;5.502;2022-08-03T08:05:59;23.40;99.90
13982;DHT22;7065;50.880;5.502;2022-08-03T08:08:24;23.50;99.90
13982;DHT22;7065;50.880;5.502;2022-08-03T08:10:50;23.50;99.90
13982;DHT22;7065;50.880;5.502;2022-08-03T08:13:16;23.60;99.90
13982;DHT22;7065;50.880;5.502;2022-08-03T08:15:41;23.70;99.90
13982;DHT22;7065;50.880;5.502;2022-08-03T08:18:07;23.80;99.90
13982;DHT22;7065;50.880;5.502;2022-08-03T08:20:34;23.80;99.90
13982;DHT22;7065;50.880;5.502;2022-08-03T08:23:03;23.80;99.90
13982;DHT22;7065;50.880;5.502;2022-08-03T08:25:31;23.90;99.90
13982;DHT22;7065;50.880;5.502;2022-08-03T08:27:57;24.00;99.90
13982;DHT22;7065;50.880;5.502;2022-08-03T08:30:26;24.10;99.90
13982;DHT22;7065;50.880;5.502;2022-08-03T08:32:51;24.10;99.90
13982;DHT22;7065;50.880;5.502;2022-08-03T08:35:17;24.20;99.90
13982;DHT22;7065;50.880;5.502;2022-08-03T08:37:43;24.30;99.90
13982;DHT22;7065;50.880;5.502;2022-08-03T08:40:10;24.20;99.90
13982;DHT22;7065;50.880;5.502;2022-08-03T08:42:38;24.30;99.90
13982;DHT22;7065;50.880;5.502;2022-08-03T08:45:04;24.40;99.90
13982;DHT22;7065;50.880;5.502;2022-08-03T08:47:31;24.50;99.90
13982;DHT22;7065;50.880;5.502;2022-08-03T08:49:58;24.50;99.90
13982;DHT22;7065;50.880;5.502;2022-08-03T08:52:29;24.50;99.90
13982;DHT22;7065;50.880;5.502;2022-08-03T08:54:57;24.70;99.90
13982;DHT22;7065;50.880;5.502;2022-08-03T08:57:27;24.70;99.90
13982;DHT22;7065;50.880;5.502;2022-08-03T08:59:54;24.70;99.90
13982;DHT22;7065;50.880;5.502;2022-08-03T09:02:22;24.70;99.90
13982;DHT22;7065;50.880;5.502;2022-08-03T09:04:48;24.80;99.90
13982;DHT22;7065;50.880;5.502;2022-08-03T09:07:14;24.90;99.90
13982;DHT22;7065;50.880;5.502;2022-08-03T09:09:40;24.90;99.90
13982;DHT22;7065;50.880;5.502;2022-08-03T09:12:07;25.00;99.90
13982;DHT22;7065;50.880;5.502;2022-08-03T09:14:33;25.10;99.90
13982;DHT22;7065;50.880;5.502;2022-08-03T09:17:00;25.10;99.90
13982;DHT22;7065;50.880;5.502;2022-08-03T09:19:27;25.10;99.90
13982;DHT22;7065;50.880;5.502;2022-08-03T09:22:14;25.20;99.90
13982;DHT22;7065;50.880;5.502;2022-08-03T09:25:01;25.30;99.90
13982;DHT22;7065;50.880;5.502;2022-08-03T09:27:28;25.40;99.90
13982;DHT22;7065;50.880;5.502;2022-08-03T09:29:54;25.40;99.90
13982;DHT22;7065;50.880;5.502;2022-08-03T09:32:21;25.50;99.90
13982;DHT22;7065;50.880;5.502;2022-08-03T09:34:48;25.60;99.90
13982;DHT22;7065;50.880;5.502;2022-08-03T09:37:16;25.60;99.90
13982;DHT22;7065;50.880;5.502;2022-08-03T09:39:42;25.70;99.90
13982;DHT22;7065;50.880;5.502;2022-08-03T09:42:13;25.70;99.90
13982;DHT22;7065;50.880;5.502;2022-08-03T09:44:41;25.80;99.90
13982;DHT22;7065;50.880;5.502;2022-08-03T09:47:09;25.90;99.90
13982;DHT22;7065;50.880;5.502;2022-08-03T09:49:38;26.00;99.90
13982;DHT22;7065;50.880;5.502;2022-08-03T09:52:14;26.10;99.90
13982;DHT22;7065;50.880;5.502;2022-08-03T09:54:41;26.20;99.90
13982;DHT22;7065;50.880;5.502;2022-08-03T09:57:07;26.20;99.90
13982;DHT22;7065;50.880;5.502;2022-08-03T09:59:33;26.30;99.90
13982;DHT22;7065;50.880;5.502;2022-08-03T10:01:59;26.50;99.90
13982;DHT22;7065;50.880;5.502;2022-08-03T10:04:26;26.50;99.90
13982;DHT22;7065;50.880;5.502;2022-08-03T10:07:05;26.60;99.90
13982;DHT22;7065;50.880;5.502;2022-08-03T10:09:36;26.60;99.90
13982;DHT22;7065;50.880;5.502;2022-08-03T10:12:10;26.70;99.90
13982;DHT22;7065;50.880;5.502;2022-08-03T10:14:37;26.70;99.90
13982;DHT22;7065;50.880;5.502;2022-08-03T10:17:03;26.80;99.90
13982;DHT22;7065;50.880;5.502;2022-08-03T10:19:29;26.80;99.90
13982;DHT22;7065;50.880;5.502;2022-08-03T10:22:00;26.80;99.90
13982;DHT22;7065;50.880;5.502;2022-08-03T10:24:29;26.80;99.90
13982;DHT22;7065;50.880;5.502;2022-08-03T10:27:06;27.00;99.90
13982;DHT22;7065;50.880;5.502;2022-08-03T10:29:37;27.10;99.90
13982;DHT22;7065;50.880;5.502;2022-08-03T10:32:07;27.10;99.90
13982;DHT22;7065;50.880;5.502;2022-08-03T10:34:37;27.30;99.90
13982;DHT22;7065;50.880;5.502;2022-08-03T10:37:09;27.30;99.90
13982;DHT22;7065;50.880;5.502;2022-08-03T10:39:36;27.40;99.90
13982;DHT22;7065;50.880;5.502;2022-08-03T10:42:02;27.40;99.90
13982;DHT22;7065;50.880;5.502;2022-08-03T10:44:38;27.50;99.90
13982;DHT22;7065;50.880;5.502;2022-08-03T10:47:04;27.50;99.90
13982;DHT22;7065;50.880;5.502;2022-08-03T10:49:31;27.60;99.90
13982;DHT22;7065;50.880;5.502;2022-08-03T10:51:57;27.60;99.90
13982;DHT22;7065;50.880;5.502;2022-08-03T10:54:43;27.70;99.90
13982;DHT22;7065;50.880;5.502;2022-08-03T11:00:10;27.70;99.90
13982;DHT22;7065;50.880;5.502;2022-08-03T11:03:08;27.70;99.90
13982;DHT22;7065;50.880;5.502;2022-08-03T11:05:42;27.80;99.90
13982;DHT22;7065;50.880;5.502;2022-08-03T11:10:52;28.10;99.90
13982;DHT22;7065;50.880;5.502;2022-08-03T11:13:20;28.10;99.90
13982;DHT22;7065;50.880;5.502;2022-08-03T11:15:48;28.00;99.90
13982;DHT22;7065;50.880;5.502;2022-08-03T11:18:14;28.10;99.90
13982;DHT22;7065;50.880;5.502;2022-08-03T11:20:57;28.20;99.90
13982;DHT22;7065;50.880;5.502;2022-08-03T11:23:46;28.20;99.90
13982;DHT22;7065;50.880;5.502;2022-08-03T11:26:19;28.20;99.90
13982;DHT22;7065;50.880;5.502;2022-08-03T11:28:47;28.30;99.90
13982;DHT22;7065;50.880;5.502;2022-08-03T11:34:08;28.40;99.90
13982;DHT22;7065;50.880;5.502;2022-08-03T11:39:45;28.40;99.90
13982;DHT22;7065;50.880;5.502;2022-08-03T11:44:54;28.60;99.90
13982;DHT22;7065;50.880;5.502;2022-08-03T11:47:20;28.60;99.90
13982;DHT22;7065;50.880;5.502;2022-08-03T11:49:47;28.70;99.90
13982;DHT22;7065;50.880;5.502;2022-08-03T11:52:14;28.80;99.90
13982;DHT22;7065;50.880;5.502;2022-08-03T11:54:41;28.80;99.90
13982;DHT22;7065;50.880;5.502;2022-08-03T11:57:06;28.90;99.90
13982;DHT22;7065;50.880;5.502;2022-08-03T11:59:33;29.00;99.90
13982;DHT22;7065;50.880;5.502;2022-08-03T12:02:06;29.30;99.90
13982;DHT22;7065;50.880;5.502;2022-08-03T12:04:49;29.30;99.90
13982;DHT22;7065;50.880;5.502;2022-08-03T12:07:15;29.30;99.90
13982;DHT22;7065;50.880;5.502;2022-08-03T12:09:42;29.30;99.90
13982;DHT22;7065;50.880;5.502;2022-08-03T12:12:08;29.40;99.90
13982;DHT22;7065;50.880;5.502;2022-08-03T12:14:34;29.40;99.90
13982;DHT22;7065;50.880;5.502;2022-08-03T12:16:59;29.60;99.90
13982;DHT22;7065;50.880;5.502;2022-08-03T12:19:25;29.60;99.90
13982;DHT22;7065;50.880;5.502;2022-08-03T12:21:51;29.70;99.90
13982;DHT22;7065;50.880;5.502;2022-08-03T12:24:17;29.70;99.90
13982;DHT22;7065;50.880;5.502;2022-08-03T12:26:47;29.70;99.90
13982;DHT22;7065;50.880;5.502;2022-08-03T12:29:21;29.60;99.90
13982;DHT22;7065;50.880;5.502;2022-08-03T12:31:47;29.70;99.90
13982;DHT22;7065;50.880;5.502;2022-08-03T12:34:14;29.70;99.90
13982;DHT22;7065;50.880;5.502;2022-08-03T12:36:53;29.70;99.90
13982;DHT22;7065;50.880;5.502;2022-08-03T12:39:24;29.80;99.90
13982;DHT22;7065;50.880;5.502;2022-08-03T12:41:55;29.80;99.90
13982;DHT22;7065;50.880;5.502;2022-08-03T12:44:35;29.80;99.90
13982;DHT22;7065;50.880;5.502;2022-08-03T12:47:02;29.90;99.90
13982;DHT22;7065;50.880;5.502;2022-08-03T12:49:28;29.90;99.90
13982;DHT22;7065;50.880;5.502;2022-08-03T12:54:21;30.10;99.90
13982;DHT22;7065;50.880;5.502;2022-08-03T12:57:01;30.30;99.90
13982;DHT22;7065;50.880;5.502;2022-08-03T12:59:30;30.30;99.90
13982;DHT22;7065;50.880;5.502;2022-08-03T13:01:56;30.30;99.90
13982;DHT22;7065;50.880;5.502;2022-08-03T13:04:26;30.50;99.90
13982;DHT22;7065;50.880;5.502;2022-08-03T13:07:04;30.40;99.90
13982;DHT22;7065;50.880;5.502;2022-08-03T13:09:38;30.50;99.90
13982;DHT22;7065;50.880;5.502;2022-08-03T13:12:11;30.60;99.90
13982;DHT22;7065;50.880;5.502;2022-08-03T13:14:36;30.80;99.90
13982;DHT22;7065;50.880;5.502;2022-08-03T13:17:03;30.80;99.90
13982;DHT22;7065;50.880;5.502;2022-08-03T13:19:31;30.80;99.90
13982;DHT22;7065;50.880;5.502;2022-08-03T13:21:57;30.80;99.90
13982;DHT22;7065;50.880;5.502;2022-08-03T13:24:22;31.00;99.90
13982;DHT22;7065;50.880;5.502;2022-08-03T13:26:48;31.00;99.90
13982;DHT22;7065;50.880;5.502;2022-08-03T13:29:13;31.10;99.90
13982;DHT22;7065;50.880;5.502;2022-08-03T13:31:39;31.10;99.90
13982;DHT22;7065;50.880;5.502;2022-08-03T13:34:06;31.20;99.90
13982;DHT22;7065;50.880;5.502;2022-08-03T13:36:31;31.30;99.90
13982;DHT22;7065;50.880;5.502;2022-08-03T13:38:57;31.20;99.90
13982;DHT22;7065;50.880;5.502;2022-08-03T13:41:22;31.20;99.90
13982;DHT22;7065;50.880;5.502;2022-08-03T13:43:48;31.20;99.90
13982;DHT22;7065;50.880;5.502;2022-08-03T13:46:13;31.30;99.90
13982;DHT22;7065;50.880;5.502;2022-08-03T13:48:39;31.40;99.90
13982;DHT22;7065;50.880;5.502;2022-08-03T13:51:05;31.60;99.90
13982;DHT22;7065;50.880;5.502;2022-08-03T13:53:30;31.60;99.90
13982;DHT22;7065;50.880;5.502;2022-08-03T13:55:56;31.80;99.90
13982;DHT22;7065;50.880;5.502;2022-08-03T13:58:22;31.90;99.90
13982;DHT22;7065;50.880;5.502;2022-08-03T14:00:48;31.90;99.90
13982;DHT22;7065;50.880;5.502;2022-08-03T14:03:13;31.90;99.90
13982;DHT22;7065;50.880;5.502;2022-08-03T14:05:39;32.00;99.90
13982;DHT22;7065;50.880;5.502;2022-08-03T14:08:06;32.10;99.90
13982;DHT22;7065;50.880;5.502;2022-08-03T14:10:33;32.00;99.90
13982;DHT22;7065;50.880;5.502;2022-08-03T14:12:59;32.10;99.90
13982;DHT22;7065;50.880;5.502;2022-08-03T14:15:25;32.10;99.90
13982;DHT22;7065;50.880;5.502;2022-08-03T14:17:52;32.20;99.90
13982;DHT22;7065;50.880;5.502;2022-08-03T14:20:18;32.30;99.90
13982;DHT22;7065;50.880;5.502;2022-08-03T14:22:44;32.20;99.90
13982;DHT22;7065;50.880;5.502;2022-08-03T14:25:09;32.10;99.90
13982;DHT22;7065;50.880;5.502;2022-08-03T14:27:35;32.20;99.90
13982;DHT22;7065;50.880;5.502;2022-08-03T14:30:01;32.20;99.90
13982;DHT22;7065;50.880;5.502;2022-08-03T14:32:27;32.40;99.90
13982;DHT22;7065;50.880;5.502;2022-08-03T14:34:52;32.50;99.90
13982;DHT22;7065;50.880;5.502;2022-08-03T14:37:18;32.70;99.90
13982;DHT22;7065;50.880;5.502;2022-08-03T14:39:44;32.90;99.90
13982;DHT22;7065;50.880;5.502;2022-08-03T14:42:11;33.00;99.90
13982;DHT22;7065;50.880;5.502;2022-08-03T14:44:36;33.10;99.90
13982;DHT22;7065;50.880;5.502;2022-08-03T14:47:02;33.20;99.90
13982;DHT22;7065;50.880;5.502;2022-08-03T14:49:28;33.30;99.90
13982;DHT22;7065;50.880;5.502;2022-08-03T14:51:54;33.40;99.30
13982;DHT22;7065;50.880;5.502;2022-08-03T14:54:20;33.40;99.90
13982;DHT22;7065;50.880;5.502;2022-08-03T14:56:45;33.40;99.80
13982;DHT22;7065;50.880;5.502;2022-08-03T14:59:11;33.40;98.90
13982;DHT22;7065;50.880;5.502;2022-08-03T15:01:37;33.40;99.40
13982;DHT22;7065;50.880;5.502;2022-08-03T15:04:02;33.40;98.30
13982;DHT22;7065;50.880;5.502;2022-08-03T15:06:28;33.40;98.40
13982;DHT22;7065;50.880;5.502;2022-08-03T15:08:53;33.30;98.30
13982;DHT22;7065;50.880;5.502;2022-08-03T15:11:19;33.30;98.50
13982;DHT22;7065;50.880;5.502;2022-08-03T15:13:45;33.40;98.30
13982;DHT22;7065;50.880;5.502;2022-08-03T15:16:10;33.50;99.00
13982;DHT22;7065;50.880;5.502;2022-08-03T15:18:36;33.50;98.90
13982;DHT22;7065;50.880;5.502;2022-08-03T15:21:01;33.70;98.50
13982;DHT22;7065;50.880;5.502;2022-08-03T15:23:27;33.90;97.80
13982;DHT22;7065;50.880;5.502;2022-08-03T15:25:53;34.00;98.60
13982;DHT22;7065;50.880;5.502;2022-08-03T15:28:18;34.30;98.30
13982;DHT22;7065;50.880;5.502;2022-08-03T15:30:44;34.50;97.50
13982;DHT22;7065;50.880;5.502;2022-08-03T15:33:10;34.50;97.20
13982;DHT22;7065;50.880;5.502;2022-08-03T15:35:36;34.40;96.40
13982;DHT22;7065;50.880;5.502;2022-08-03T15:38:02;34.50;96.40
13982;DHT22;7065;50.880;5.502;2022-08-03T15:40:27;34.70;96.40
13982;DHT22;7065;50.880;5.502;2022-08-03T15:42:53;34.80;95.70
13982;DHT22;7065;50.880;5.502;2022-08-03T15:45:18;35.10;96.20
13982;DHT22;7065;50.880;5.502;2022-08-03T15:47:44;35.50;94.50
13982;DHT22;7065;50.880;5.502;2022-08-03T15:50:10;35.60;94.60
13982;DHT22;7065;50.880;5.502;2022-08-03T15:52:36;35.90;93.80
13982;DHT22;7065;50.880;5.502;2022-08-03T15:55:02;36.60;93.20
13982;DHT22;7065;50.880;5.502;2022-08-03T15:57:28;37.60;91.00
13982;DHT22;7065;50.880;5.502;2022-08-03T15:59:54;38.10;91.00
13982;DHT22;7065;50.880;5.502;2022-08-03T16:02:20;38.90;88.20
13982;DHT22;7065;50.880;5.502;2022-08-03T16:04:45;39.90;84.10
13982;DHT22;7065;50.880;5.502;2022-08-03T16:07:11;40.80;81.20
13982;DHT22;7065;50.880;5.502;2022-08-03T16:09:40;41.40;77.30
13982;DHT22;7065;50.880;5.502;2022-08-03T16:12:06;42.10;75.60
13982;DHT22;7065;50.880;5.502;2022-08-03T16:14:31;42.30;72.10
13982;DHT22;7065;50.880;5.502;2022-08-03T16:16:57;42.90;69.80
13982;DHT22;7065;50.880;5.502;2022-08-03T16:19:22;43.00;65.90